Time;durP1;ratioP1;P1;durP2;ratioP2;P2;SDS_P1;SDS_P2;PMS_P1;PMS_P2;Temp;Humidity;BMP_temperature;BMP_pressure;BME280_temperature;BME280_humidity;BME280_pressure;Samples;Min_cycle;Max_cycle;Signal;HPM_P1;HPM_P2
2024/01/13 00:00:27;;;;;;;0.00;0.00;;;;;;;-3.43;100.00;145431.50;4985522;28;20353;-67
2024/01/13 00:02:54;;;;;;;0.00;0.00;;;;;;;-3.42;100.00;145433.97;4982919;28;20228;-67
2024/01/13 00:05:20;;;;;;;0.00;0.00;;;;;;;-3.43;100.00;145432.75;4985872;28;20223;-67
2024/01/13 00:07:47;;;;;;;0.00;0.00;;;;;;;-3.43;100.00;145432.75;4983266;28;20223;-67
2024/01/13 00:10:14;;;;;;;0.00;0.00;;;;;;;-3.39;100.00;145440.16;4986207;28;20239;-66
2024/01/13 00:12:40;;;;;;;0.00;0.00;;;;;;;-3.36;100.00;145448.75;4986900;28;20227;-66
2024/01/13 00:15:08;;;;;;;0.00;0.00;;;;;;;-3.37;100.00;145445.09;4980837;28;20235;-66
2024/01/13 00:17:36;;;;;;;0.00;0.00;;;;;;;-3.35;100.00;145451.22;4984524;28;20238;-66
2024/01/13 00:20:03;;;;;;;0.00;0.00;;;;;;;-3.33;100.00;145454.94;4982648;28;20227;-67
2024/01/13 00:22:29;;;;;;;0.00;0.00;;;;;;;-3.32;100.00;145457.41;4984652;28;20225;-66
2024/01/13 00:24:56;;;;;;;0.00;0.00;;;;;;;-3.37;100.00;145445.09;4982237;28;20231;-66
2024/01/13 00:27:23;;;;;;;0.00;0.00;;;;;;;-3.29;100.00;145464.81;4986006;28;20224;-66
2024/01/13 00:29:49;;;;;;;0.00;0.00;;;;;;;-3.35;100.00;145450.03;4986011;28;20218;-66
2024/01/13 00:32:16;;;;;;;0.00;0.00;;;;;;;-3.34;100.00;145452.47;4977686;28;20241;-66
2024/01/13 00:34:44;;;;;;;0.00;0.00;;;;;;;-3.37;100.00;145446.28;4985011;28;20231;-66
2024/01/13 00:37:10;;;;;;;0.00;0.00;;;;;;;-3.33;100.00;145456.16;4981741;28;20742;-66
2024/01/13 00:39:37;;;;;;;0.00;0.00;;;;;;;-3.39;100.00;145441.38;4985832;28;20223;-66
2024/01/13 00:42:04;;;;;;;0.00;0.00;;;;;;;-3.35;100.00;145450.03;4983033;28;21731;-66
2024/01/13 00:44:30;;;;;;;0.00;0.00;;;;;;;-3.34;100.00;145452.47;4985911;28;20235;-66
2024/01/13 00:46:57;;;;;;;0.00;0.00;;;;;;;-3.38;100.00;145442.63;4982879;28;20228;-66
2024/01/13 00:49:24;;;;;;;0.00;0.00;;;;;;;-3.39;100.00;145441.38;4986163;28;20241;-67
2024/01/13 00:51:53;;;;;;;0.00;0.00;;;;;;;-3.41;100.00;145436.44;4979846;28;20216;-66
2024/01/13 00:54:19;;;;;;;0.00;0.00;;;;;;;-3.38;100.00;145442.63;4985337;28;20224;-66
2024/01/13 00:56:46;;;;;;;0.00;0.00;;;;;;;-3.39;100.00;145440.16;4981284;28;20722;-66
2024/01/13 00:59:13;;;;;;;0.00;0.00;;;;;;;-3.35;100.00;145450.03;4983576;28;20699;-66
2024/01/13 01:01:39;;;;;;;0.00;0.00;;;;;;;-3.34;100.00;145452.47;4982757;28;20710;-67
2024/01/13 01:04:06;;;;;;;0.00;0.00;;;;;;;-3.35;100.00;145450.03;4980658;28;20232;-66
2024/01/13 01:06:33;;;;;;;0.00;0.00;;;;;;;-3.35;100.00;145450.03;4983979;28;20227;-67
2024/01/13 01:09:00;;;;;;;0.00;0.00;;;;;;;-3.34;100.00;145452.47;4982492;28;20240;-67
2024/01/13 01:11:27;;;;;;;0.00;0.00;;;;;;;-3.33;100.00;145454.94;4985327;28;20831;-67
2024/01/13 01:13:55;;;;;;;0.00;0.00;;;;;;;-3.29;100.00;145466.03;4981688;28;20298;-67
2024/01/13 01:16:22;;;;;;;0.00;0.00;;;;;;;-3.31;100.00;145459.88;4983744;28;20583;-67
2024/01/13 01:18:48;;;;;;;0.00;0.00;;;;;;;-3.37;100.00;145445.09;4982795;28;20310;-67
2024/01/13 01:21:16;;;;;;;0.00;0.00;;;;;;;-3.30;100.00;145462.34;4984314;28;20239;-67
2024/01/13 01:23:46;;;;;;;0.00;0.00;;;;;;;-3.35;100.00;145451.22;4979468;28;20227;-66
2024/01/13 01:26:14;;;;;;;0.00;0.00;;;;;;;-3.33;100.00;145454.94;4983230;28;20237;-66
2024/01/13 01:28:40;;;;;;;0.00;0.00;;;;;;;-3.33;100.00;145454.94;4983381;28;20222;-66
2024/01/13 01:31:07;;;;;;;0.00;0.00;;;;;;;-3.30;100.00;145462.34;4980684;28;20234;-66
2024/01/13 01:33:34;;;;;;;0.00;0.00;;;;;;;-3.30;100.00;145462.34;4987712;28;20226;-66
2024/01/13 01:36:00;;;;;;;0.00;0.00;;;;;;;-3.23;100.00;145478.34;4981980;28;20639;-66
2024/01/13 01:38:27;;;;;;;0.00;0.00;;;;;;;-3.29;100.00;145464.81;4979875;28;20234;-67
2024/01/13 01:40:55;;;;;;;0.00;0.00;;;;;;;-3.28;100.00;145468.50;4978542;28;20281;-67
2024/01/13 01:43:23;;;;;;;0.00;0.00;;;;;;;-3.23;100.00;145478.34;4984100;28;20225;-67
2024/01/13 01:45:52;;;;;;;0.00;0.00;;;;;;;-3.25;100.00;145474.69;4980392;28;20615;-67
2024/01/13 01:48:22;;;;;;;0.00;0.00;;;;;;;-3.23;100.00;145478.34;4980607;28;20247;-66
2024/01/13 01:50:49;;;;;;;0.00;0.00;;;;;;;-3.24;100.00;145475.88;4980561;28;20215;-66
2024/01/13 01:53:16;;;;;;;0.00;0.00;;;;;;;-3.22;100.00;145482.06;4980151;28;20224;-67
2024/01/13 01:55:43;;;;;;;0.00;0.00;;;;;;;-3.31;100.00;145461.09;4980346;28;20742;-66
2024/01/13 01:58:09;;;;;;;0.00;0.00;;;;;;;-3.27;100.00;145469.75;4979655;28;20228;-66
2024/01/13 02:00:37;;;;;;;0.00;0.00;;;;;;;-3.31;100.00;145461.09;4981838;28;20235;-66
2024/01/13 02:03:05;;;;;;;0.00;0.00;;;;;;;-3.27;100.00;145470.94;4979874;28;20250;-67
2024/01/13 02:05:32;;;;;;;0.00;0.00;;;;;;;-3.26;100.00;145472.22;4981217;28;20240;-67
2024/01/13 02:07:59;;;;;;;0.00;0.00;;;;;;;-3.31;100.00;145461.09;4981662;28;20239;-67
2024/01/13 02:10:26;;;;;;;0.00;0.00;;;;;;;-3.28;100.00;145468.50;4983616;28;20226;-67
2024/01/13 02:12:53;;;;;;;0.00;0.00;;;;;;;-3.32;100.00;145458.63;4981627;28;20653;-67
2024/01/13 02:15:20;;;;;;;0.00;0.00;;;;;;;-3.36;100.00;145448.75;4984032;28;20219;-66
2024/01/13 02:17:48;;;;;;;0.00;0.00;;;;;;;-3.36;100.00;145448.75;4982132;28;20219;-66
2024/01/13 02:20:14;;;;;;;0.00;0.00;;;;;;;-3.34;100.00;145452.47;4984017;28;20599;-66
2024/01/13 02:22:42;;;;;;;0.00;0.00;;;;;;;-3.39;100.00;145440.16;4984472;28;20216;-67
2024/01/13 02:25:10;;;;;;;0.00;0.00;;;;;;;-3.41;100.00;145437.69;4981178;28;20283;-67
2024/01/13 02:27:37;;;;;;;0.00;0.00;;;;;;;-3.35;100.00;145450.03;4982502;28;20227;-67
2024/01/13 02:30:04;;;;;;;0.00;0.00;;;;;;;-3.34;100.00;145452.47;4979539;28;22188;-67
2024/01/13 02:32:31;;;;;;;0.00;0.00;;;;;;;-3.32;100.00;145458.63;4982369;28;20786;-66
2024/01/13 02:34:58;;;;;;;0.00;0.00;;;;;;;-3.28;100.00;145467.28;4978753;28;20231;-66
2024/01/13 02:37:24;;;;;;;0.00;0.00;;;;;;;-3.28;100.00;145468.50;4984634;28;20223;-66
2024/01/13 02:39:52;;;;;;;0.00;0.00;;;;;;;-3.30;100.00;145462.34;4981438;28;20234;-66
2024/01/13 02:42:19;;;;;;;0.00;0.00;;;;;;;-3.26;100.00;145472.22;4983470;28;20241;-66
2024/01/13 02:44:46;;;;;;;0.00;0.00;;;;;;;-3.34;100.00;145453.69;4981644;28;20281;-66
2024/01/13 02:47:12;;;;;;;0.00;0.00;;;;;;;-3.36;100.00;145447.56;4983099;28;20234;-66
2024/01/13 02:49:39;;;;;;;0.00;0.00;;;;;;;-3.32;100.00;145457.41;4987126;28;20231;-66
2024/01/13 02:52:06;;;;;;;0.00;0.00;;;;;;;-3.30;100.00;145462.34;4983857;28;20242;-66
2024/01/13 02:54:33;;;;;;;0.00;0.00;;;;;;;-3.35;100.00;145450.03;4986326;28;20231;-66
2024/01/13 02:57:01;;;;;;;0.00;0.00;;;;;;;-3.35;100.00;145450.03;4984917;28;20223;-66
2024/01/13 02:59:27;;;;;;;0.00;0.00;;;;;;;-3.39;100.00;145440.16;4988318;28;20228;-66
2024/01/13 03:01:54;;;;;;;0.00;0.00;;;;;;;-3.37;100.00;145445.09;4982225;28;20232;-66
2024/01/13 03:04:21;;;;;;;0.00;0.00;;;;;;;-3.42;100.00;145433.97;4987615;28;20232;-66
2024/01/13 03:06:47;;;;;;;0.00;0.00;;;;;;;-3.42;100.00;145435.22;4983147;28;20226;-66
2024/01/13 03:09:14;;;;;;;0.00;0.00;;;;;;;-3.39;100.00;145440.16;4987718;28;20242;-66
2024/01/13 03:11:40;;;;;;;0.00;0.00;;;;;;;-3.37;100.00;145446.28;4986569;28;20227;-67
2024/01/13 03:14:09;;;;;;;0.00;0.00;;;;;;;-3.37;100.00;145446.28;4983336;28;20232;-67
2024/01/13 03:16:35;;;;;;;0.00;0.00;;;;;;;-3.40;100.00;145438.91;4987485;28;20290;-67
2024/01/13 03:19:02;;;;;;;0.00;0.00;;;;;;;-3.41;100.00;145436.44;4983990;28;20567;-67
2024/01/13 03:21:28;;;;;;;0.00;0.00;;;;;;;-3.39;100.00;145440.16;4985638;28;20224;-67
2024/01/13 03:23:55;;;;;;;0.00;0.00;;;;;;;-3.34;100.00;145452.47;4985296;28;20223;-67
2024/01/13 03:26:21;;;;;;;0.00;0.00;;;;;;;-3.37;100.00;145445.09;4987885;28;20254;-67
2024/01/13 03:28:48;;;;;;;0.00;0.00;;;;;;;-3.32;100.00;145457.41;4984764;28;20219;-66
2024/01/13 03:31:16;;;;;;;0.00;0.00;;;;;;;-3.37;100.00;145446.28;4986419;28;20245;-66
2024/01/13 03:33:46;;;;;;;0.00;0.00;;;;;;;-3.41;100.00;145436.44;4982415;28;20255;-66
2024/01/13 03:36:13;;;;;;;0.00;0.00;;;;;;;-3.43;100.00;145431.50;4985461;28;20231;-66
2024/01/13 03:38:39;;;;;;;0.00;0.00;;;;;;;-3.40;100.00;145438.91;4989940;28;20278;-67
2024/01/13 03:41:06;;;;;;;0.00;0.00;;;;;;;-3.44;100.00;145430.28;4982807;28;20929;-66
2024/01/13 03:43:33;;;;;;;0.00;0.00;;;;;;;-3.49;100.00;145417.97;4987371;28;20227;-66
2024/01/13 03:45:59;;;;;;;0.00;0.00;;;;;;;-3.46;100.00;145425.34;4982919;28;20231;-66
2024/01/13 03:48:27;;;;;;;0.00;0.00;;;;;;;-3.46;100.00;145425.34;4987073;28;20215;-66
2024/01/13 03:50:54;;;;;;;0.00;0.00;;;;;;;-3.49;100.00;145416.72;4984184;28;20223;-66
2024/01/13 03:53:20;;;;;;;0.00;0.00;;;;;;;-3.58;100.00;145395.78;4985211;28;20231;-67
2024/01/13 03:55:47;;;;;;;0.00;0.00;;;;;;;-3.53;100.00;145406.84;4983912;28;20234;-66
2024/01/13 03:58:14;;;;;;;0.00;0.00;;;;;;;-3.49;100.00;145417.97;4985774;28;20230;-66
2024/01/13 04:00:41;;;;;;;0.00;0.00;;;;;;;-3.42;100.00;145433.97;4983446;28;20775;-66
2024/01/13 04:03:07;;;;;;;0.00;0.00;;;;;;;-3.36;100.00;145447.56;4982897;28;20698;-67
2024/01/13 04:05:35;;;;;;;0.00;0.00;;;;;;;-3.34;100.00;145452.47;4986842;28;20242;-66
2024/01/13 04:08:03;;;;;;;0.00;0.00;;;;;;;-3.31;100.00;145461.09;4983902;28;20231;-66
2024/01/13 04:10:30;;;;;;;0.00;0.00;;;;;;;-3.30;100.00;145462.34;4985706;28;20236;-66
2024/01/13 04:12:57;;;;;;;0.00;0.00;;;;;;;-3.38;100.00;145443.81;4998044;28;20618;-66
2024/01/13 04:15:24;;;;;;;0.00;0.00;;;;;;;-3.35;100.00;145450.03;4986118;28;20220;-66
2024/01/13 04:17:51;;;;;;;0.00;0.00;;;;;;;-3.36;100.00;145447.56;4982142;28;20259;-67
2024/01/13 04:20:17;;;;;;;0.00;0.00;;;;;;;-3.33;100.00;145454.94;4986393;28;20231;-67
2024/01/13 04:22:45;;;;;;;0.00;0.00;;;;;;;-3.30;100.00;145462.34;4984188;28;20749;-66
2024/01/13 04:25:12;;;;;;;0.00;0.00;;;;;;;-3.29;100.00;145464.81;4983412;28;20236;-66
2024/01/13 04:27:38;;;;;;;0.00;0.00;;;;;;;-3.26;100.00;145473.41;4985759;28;20223;-67
2024/01/13 04:32:53;;;;;;;0.00;0.00;;;;;;;-3.23;100.00;145479.59;5048288;23;20323;-65
2024/01/13 04:35:19;;;;;;;0.00;0.00;;;;;;;-3.23;100.00;145479.59;4975466;28;22606;-65
2024/01/13 04:37:47;;;;;;;0.00;0.00;;;;;;;-3.20;100.00;145485.75;4963666;28;20235;-65
2024/01/13 04:40:14;;;;;;;0.00;0.00;;;;;;;-3.23;100.00;145478.34;4977205;28;20580;-64
2024/01/13 04:42:40;;;;;;;0.00;0.00;;;;;;;-3.15;100.00;145499.28;4977070;28;20712;-65
2024/01/13 04:45:08;;;;;;;0.00;0.00;;;;;;;-3.16;100.00;145496.81;4972242;28;20227;-65
2024/01/13 04:47:36;;;;;;;0.00;0.00;;;;;;;-3.10;100.00;145510.41;4977501;28;20249;-66
2024/01/13 04:50:02;;;;;;;0.00;0.00;;;;;;;-3.05;100.00;145522.75;4973133;28;20227;-66
2024/01/13 04:52:29;;;;;;;0.00;0.00;;;;;;;-3.19;100.00;145488.22;4973699;28;20235;-66
2024/01/13 04:54:57;;;;;;;0.00;0.00;;;;;;;-3.21;100.00;145484.53;4971403;28;20225;-66
2024/01/13 04:57:24;;;;;;;0.00;0.00;;;;;;;-3.20;100.00;145487.00;4974818;28;20220;-66
2024/01/13 04:59:51;;;;;;;0.00;0.00;;;;;;;-3.18;100.00;145491.91;4973350;28;20239;-66
2024/01/13 05:02:17;;;;;;;0.00;0.00;;;;;;;-3.15;100.00;145498.09;4976270;28;20235;-66
2024/01/13 05:04:44;;;;;;;0.00;0.00;;;;;;;-3.18;100.00;145491.91;4976385;28;20727;-66
2024/01/13 05:07:10;;;;;;;0.00;0.00;;;;;;;-3.16;100.00;145495.63;4974038;28;20244;-66
2024/01/13 05:09:37;;;;;;;0.00;0.00;;;;;;;-3.13;100.00;145504.22;4974425;28;20575;-66
2024/01/13 05:12:07;;;;;;;0.00;0.00;;;;;;;-3.17;100.00;145494.38;4975019;28;24485;-66
2024/01/13 05:14:34;;;;;;;0.00;0.00;;;;;;;-3.18;100.00;145491.91;4974318;28;20235;-66
2024/01/13 05:17:00;;;;;;;0.00;0.00;;;;;;;-3.22;100.00;145482.06;4975698;28;20226;-66
2024/01/13 05:19:27;;;;;;;0.00;0.00;;;;;;;-3.24;100.00;145475.88;4975249;28;20612;-66
2024/01/13 05:21:53;;;;;;;0.00;0.00;;;;;;;-3.23;100.00;145479.59;4972947;28;20227;-66
2024/01/13 05:24:20;;;;;;;0.00;0.00;;;;;;;-3.27;100.00;145469.75;4975128;28;20243;-66
2024/01/13 05:26:47;;;;;;;0.00;0.00;;;;;;;-3.27;100.00;145469.75;4971618;28;20230;-66
2024/01/13 05:29:15;;;;;;;0.00;0.00;;;;;;;-3.24;100.00;145475.88;4976277;28;20573;-66
2024/01/13 05:31:42;;;;;;;0.00;0.00;;;;;;;-3.19;100.00;145489.47;4973177;28;20225;-66
2024/01/13 05:34:09;;;;;;;0.00;0.00;;;;;;;-3.13;100.00;145503.03;4970787;28;20229;-66
2024/01/13 05:36:35;;;;;;;0.00;0.00;;;;;;;-3.20;100.00;145487.00;4975262;28;20219;-66
2024/01/13 05:39:02;;;;;;;0.00;0.00;;;;;;;-3.26;100.00;145472.22;4973266;28;20703;-66
2024/01/13 05:41:29;;;;;;;0.00;0.00;;;;;;;-3.37;100.00;145446.28;4973193;28;20238;-66
2024/01/13 05:43:55;;;;;;;0.00;0.00;;;;;;;-3.37;100.00;145446.28;4955785;28;20696;-66
2024/01/13 05:46:23;;;;;;;0.00;0.00;;;;;;;-3.28;100.00;145468.50;4975187;28;20230;-66
2024/01/13 05:48:51;;;;;;;0.00;0.00;;;;;;;-3.30;100.00;145463.56;4962591;28;20227;-66
2024/01/13 05:51:17;;;;;;;0.00;0.00;;;;;;;-3.33;100.00;145454.94;4975209;28;20243;-66
2024/01/13 05:53:46;;;;;;;0.00;0.00;;;;;;;-3.28;100.00;145467.28;4972175;28;20247;-66
2024/01/13 05:56:12;;;;;;;0.00;0.00;;;;;;;-3.21;100.00;145483.28;4975177;28;20235;-66
2024/01/13 05:58:41;;;;;;;0.00;0.00;;;;;;;-3.30;100.00;145463.56;4974937;28;20687;-66
2024/01/13 06:01:07;;;;;;;0.00;0.00;;;;;;;-3.29;100.00;145464.81;4979503;28;20306;-66
2024/01/13 06:03:35;;;;;;;0.00;0.00;;;;;;;-3.26;100.00;145472.22;4974880;28;20227;-66
2024/01/13 06:06:02;;;;;;;0.00;0.00;;;;;;;-3.25;100.00;145474.69;4968568;28;20712;-66
2024/01/13 06:08:29;;;;;;;0.00;0.00;;;;;;;-3.23;100.00;145478.34;4974415;28;20317;-66
2024/01/13 06:10:55;;;;;;;0.00;0.00;;;;;;;-3.21;100.00;145484.53;4974257;28;20591;-66
2024/01/13 06:13:22;;;;;;;0.00;0.00;;;;;;;-3.18;100.00;145490.69;4975433;28;20227;-66
2024/01/13 06:15:49;;;;;;;0.00;0.00;;;;;;;-3.16;100.00;145496.81;4971525;28;20224;-66
2024/01/13 06:18:15;;;;;;;0.00;0.00;;;;;;;-3.11;100.00;145507.94;4973669;28;20227;-66
2024/01/13 06:20:43;;;;;;;0.00;0.00;;;;;;;-3.20;100.00;145487.00;4973352;28;20303;-66
2024/01/13 06:23:10;;;;;;;0.00;0.00;;;;;;;-3.26;100.00;145472.22;4972705;28;20240;-66
2024/01/13 06:25:36;;;;;;;0.00;0.00;;;;;;;-3.25;100.00;145474.69;4977369;28;20258;-66
2024/01/13 06:28:03;;;;;;;0.00;0.00;;;;;;;-3.22;100.00;145480.81;4975937;28;20267;-66
2024/01/13 06:30:30;;;;;;;0.00;0.00;;;;;;;-3.21;100.00;145484.53;4969972;28;20707;-66
2024/01/13 06:32:57;;;;;;;0.00;0.00;;;;;;;-3.19;100.00;145489.47;4984771;28;20324;-66
2024/01/13 06:35:23;;;;;;;0.00;0.00;;;;;;;-3.16;100.00;145495.63;4978803;28;20304;-66
2024/01/13 06:37:52;;;;;;;0.00;0.00;;;;;;;-3.17;100.00;145493.16;4971898;28;20232;-66
2024/01/13 06:40:18;;;;;;;0.00;0.00;;;;;;;-3.21;100.00;145484.53;4979227;28;20232;-66
2024/01/13 06:42:45;;;;;;;0.00;0.00;;;;;;;-3.17;100.00;145494.38;4975386;28;20225;-66
2024/01/13 06:45:12;;;;;;;0.00;0.00;;;;;;;-3.15;100.00;145499.28;4977778;28;20243;-68
2024/01/13 06:47:38;;;;;;;0.00;0.00;;;;;;;-3.19;100.00;145488.22;4979298;28;20707;-66
2024/01/13 06:50:06;;;;;;;0.00;0.00;;;;;;;-3.25;100.00;145474.69;4974511;28;20253;-66
2024/01/13 06:52:32;;;;;;;0.00;0.00;;;;;;;-3.18;100.00;145491.91;4975913;28;20259;-66
2024/01/13 06:55:02;;;;;;;0.00;0.00;;;;;;;-3.17;100.00;145494.38;4973792;28;20235;-66
2024/01/13 06:57:28;;;;;;;0.00;0.00;;;;;;;-3.17;100.00;145493.16;4977281;28;20257;-66
2024/01/13 06:59:55;;;;;;;0.00;0.00;;;;;;;-3.21;100.00;145484.53;4973310;28;20219;-66
2024/01/13 07:02:21;;;;;;;0.00;0.00;;;;;;;-3.18;100.00;145490.69;4976522;28;20236;-66
2024/01/13 07:04:50;;;;;;;0.00;0.00;;;;;;;-3.21;100.00;145484.53;4972799;28;20235;-66
2024/01/13 07:07:16;;;;;;;0.00;0.00;;;;;;;-3.22;100.00;145482.06;4977115;28;20326;-66
2024/01/13 07:09:43;;;;;;;0.00;0.00;;;;;;;-3.16;100.00;145495.63;4978427;28;20689;-66
2024/01/13 07:12:11;;;;;;;0.00;0.00;;;;;;;-3.18;100.00;145491.91;4973293;28;20707;-66
2024/01/13 07:14:38;;;;;;;0.00;0.00;;;;;;;-3.18;100.00;145490.69;4987013;28;20718;-66
2024/01/13 07:17:05;;;;;;;0.00;0.00;;;;;;;-3.18;100.00;145490.69;4973767;28;20246;-66
2024/01/13 07:19:32;;;;;;;0.00;0.00;;;;;;;-3.24;100.00;145477.16;4974973;28;20587;-67
2024/01/13 07:21:59;;;;;;;0.00;0.00;;;;;;;-3.23;100.00;145479.59;4975323;28;20232;-66
2024/01/13 07:24:25;;;;;;;0.00;0.00;;;;;;;-3.22;100.00;145480.81;4977501;28;20217;-66
2024/01/13 07:26:52;;;;;;;0.00;0.00;;;;;;;-3.16;100.00;145496.81;4975687;28;20221;-66
2024/01/13 07:29:21;;;;;;;0.00;0.00;;;;;;;-3.18;100.00;145490.69;4974754;28;20251;-66
2024/01/13 07:31:48;;;;;;;0.00;0.00;;;;;;;-3.18;100.00;145491.91;4974391;28;20231;-66
2024/01/13 07:34:14;;;;;;;0.00;0.00;;;;;;;-3.08;100.00;145514.09;4978546;28;20245;-66
2024/01/13 07:36:41;;;;;;;0.00;0.00;;;;;;;-3.19;100.00;145489.47;4976585;28;20328;-66
2024/01/13 07:39:09;;;;;;;0.00;0.00;;;;;;;-3.19;100.00;145488.22;4968630;28;20240;-66
2024/01/13 07:41:36;;;;;;;0.00;0.00;;;;;;;-3.16;100.00;145496.81;4976036;28;20295;-66
2024/01/13 07:44:04;;;;;;;0.00;0.00;;;;;;;-3.17;100.00;145494.38;4975169;28;20252;-66
2024/01/13 07:46:31;;;;;;;0.00;0.00;;;;;;;-3.14;100.00;145501.75;4976448;28;20251;-67
2024/01/13 07:48:58;;;;;;;0.00;0.00;;;;;;;-3.07;100.00;145516.56;4973789;28;20698;-67
2024/01/13 07:51:25;;;;;;;0.00;0.00;;;;;;;-3.06;100.00;145520.28;4977151;28;20767;-67
2024/01/13 07:53:51;;;;;;;0.00;0.00;;;;;;;-3.06;100.00;145519.03;4972191;28;20227;-67
2024/01/13 07:56:19;;;;;;;0.00;0.00;;;;;;;-3.02;100.00;145528.88;4977328;28;20225;-67
2024/01/13 07:58:46;;;;;;;0.00;0.00;;;;;;;-3.02;100.00;145530.16;4981014;28;20889;-67
2024/01/13 08:01:13;;;;;;;0.00;0.00;;;;;;;-2.99;100.00;145536.28;4973721;28;20232;-67
2024/01/13 08:03:40;;;;;;;0.00;0.00;;;;;;;-2.93;100.00;145551.09;4982609;28;20219;-67
2024/01/13 08:06:08;;;;;;;0.00;0.00;;;;;;;-2.97;100.00;145542.47;4973947;28;20236;-67
2024/01/13 08:08:34;;;;;;;0.00;0.00;;;;;;;-3.07;100.00;145517.81;4974409;28;20236;-67
2024/01/13 08:11:01;;;;;;;0.00;0.00;;;;;;;-3.03;100.00;145526.44;4974163;28;20232;-67
2024/01/13 08:13:28;;;;;;;0.00;0.00;;;;;;;-3.08;100.00;145515.34;4983713;28;20225;-67
2024/01/13 08:15:55;;;;;;;0.00;0.00;;;;;;;-3.08;100.00;145514.09;4970957;28;20228;-68
2024/01/13 08:18:24;;;;;;;0.00;0.00;;;;;;;-3.01;100.00;145532.63;4984004;28;20232;-67
2024/01/13 08:20:52;;;;;;;0.00;0.00;;;;;;;-3.00;100.00;145533.81;4974283;28;20274;-67
2024/01/13 08:23:19;;;;;;;0.00;0.00;;;;;;;-2.98;100.00;145540.00;4977464;28;20247;-67
2024/01/13 08:25:46;;;;;;;0.00;0.00;;;;;;;-2.84;100.00;145573.28;4972550;28;20586;-67
2024/01/13 08:28:12;;;;;;;0.00;0.00;;;;;;;-2.93;100.00;145551.09;4975022;28;20611;-67
2024/01/13 08:30:39;;;;;;;0.03;0.03;;;;;;;-2.88;100.00;145562.22;4975247;28;20595;-68
2024/01/13 08:33:05;;;;;;;0.00;0.00;;;;;;;-2.81;100.00;145579.47;4979782;28;20236;-68
2024/01/13 08:35:32;;;;;;;0.00;0.00;;;;;;;-2.87;100.00;145565.88;4974914;28;20217;-67
2024/01/13 08:38:00;;;;;;;0.00;0.00;;;;;;;-2.81;100.00;145579.47;4964403;28;20223;-67
2024/01/13 08:40:27;;;;;;;0.00;0.00;;;;;;;-2.69;100.00;145607.84;4976615;28;20219;-67
2024/01/13 08:42:53;;;;;;;0.00;0.00;;;;;;;-2.67;100.00;145612.75;4989778;28;20228;-66
2024/01/13 08:45:25;;;;;;;0.00;0.00;;;;;;;-2.68;100.00;145611.56;4978576;28;20319;-66
2024/01/13 08:47:52;;;;;;;0.00;0.00;;;;;;;-2.65;100.00;145616.50;4973463;28;20264;-67
2024/01/13 08:50:18;;;;;;;0.00;0.00;;;;;;;-2.60;100.00;145628.78;4974067;28;20233;-67
2024/01/13 08:52:45;;;;;;;0.00;0.00;;;;;;;-2.58;100.00;145634.97;4971216;28;20599;-67
2024/01/13 08:55:13;;;;;;;0.00;0.00;;;;;;;-2.55;100.00;145641.13;4973090;28;20316;-67
2024/01/13 08:57:40;;;;;;;0.00;0.00;;;;;;;-2.61;100.00;145627.56;4976295;28;20220;-67
2024/01/13 09:00:08;;;;;;;0.00;0.00;;;;;;;-2.59;100.00;145632.50;4973853;28;20231;-68
2024/01/13 09:02:35;;;;;;;0.00;0.00;;;;;;;-2.59;100.00;145632.50;4974681;28;20243;-67
2024/01/13 09:05:01;;;;;;;0.00;0.00;;;;;;;-2.59;100.00;145632.50;4978213;28;20233;-67
2024/01/13 09:07:28;;;;;;;0.00;0.00;;;;;;;-2.59;100.00;145632.50;4981255;28;20237;-68
2024/01/13 09:09:55;;;;;;;0.00;0.00;;;;;;;-2.53;100.00;145646.06;4973259;28;20648;-67
2024/01/13 09:12:23;;;;;;;0.00;0.00;;;;;;;-2.44;100.00;145667.06;4976151;28;20242;-67
2024/01/13 09:14:50;;;;;;;0.00;0.00;;;;;;;-2.46;100.00;145663.31;4972482;28;20703;-68
2024/01/13 09:17:17;;;;;;;0.00;0.00;;;;;;;-2.43;100.00;145670.72;4977950;28;20224;-67
2024/01/13 09:19:46;;;;;;;0.00;0.00;;;;;;;-2.46;100.00;145662.13;4977158;28;20256;-67
2024/01/13 09:22:13;;;;;;;0.00;0.00;;;;;;;-2.52;100.00;145648.53;4973525;28;20255;-67
2024/01/13 09:24:42;;;;;;;0.00;0.00;;;;;;;-2.47;100.00;145660.84;4978720;28;20307;-67
2024/01/13 09:27:08;;;;;;;0.00;0.00;;;;;;;-2.48;100.00;145657.19;4973310;28;20757;-67
2024/01/13 09:29:36;;;;;;;0.00;0.00;;;;;;;-2.42;100.00;145672.00;4981884;28;20376;-67
2024/01/13 09:32:04;;;;;;;0.00;0.00;;;;;;;-2.44;100.00;145667.06;4966934;28;20318;-67
2024/01/13 09:34:31;;;;;;;0.00;0.00;;;;;;;-2.49;100.00;145655.94;4977818;28;20692;-67
2024/01/13 09:37:01;;;;;;;0.00;0.00;;;;;;;-2.53;100.00;145646.06;4970765;28;20224;-67
2024/01/13 09:39:27;;;;;;;0.00;0.00;;;;;;;-2.60;100.00;145628.78;4977425;28;20228;-67
2024/01/13 09:41:55;;;;;;;0.00;0.00;;;;;;;-2.41;100.00;145675.66;4972134;28;20231;-67
2024/01/13 09:44:23;;;;;;;0.00;0.00;;;;;;;-2.34;100.00;145691.72;4977484;28;20235;-67
2024/01/13 09:46:52;;;;;;;0.00;0.00;;;;;;;-2.27;100.00;145707.75;4972830;28;20295;-68
2024/01/13 09:49:20;;;;;;;0.00;0.00;;;;;;;-2.26;100.00;145710.22;4977247;28;20285;-67
2024/01/13 09:51:47;;;;;;;0.00;0.00;;;;;;;-2.31;100.00;145699.13;4971236;28;20232;-68
2024/01/13 09:54:22;;;;;;;0.00;0.00;;;;;;;-2.39;100.00;145680.59;4971983;28;20719;-68
2024/01/13 09:56:49;;;;;;;0.00;0.00;;;;;;;-2.25;100.00;145713.94;4973972;28;20227;-68
2024/01/13 09:59:17;;;;;;;0.00;0.00;;;;;;;-2.15;100.00;145736.16;4974509;28;21153;-68
2024/01/13 10:01:44;;;;;;;0.00;0.00;;;;;;;-2.23;100.00;145718.88;4982235;28;20232;-68
2024/01/13 10:04:13;;;;;;;0.00;0.00;;;;;;;-2.16;100.00;145733.69;4968436;28;20351;-68
2024/01/13 10:06:40;;;;;;;0.00;0.00;;;;;;;-2.07;100.00;145755.84;4971746;28;20643;-68
2024/01/13 10:09:08;;;;;;;0.00;0.00;;;;;;;-2.02;100.00;145767.00;4971501;28;20708;-68
2024/01/13 10:11:35;;;;;;;0.00;0.00;;;;;;;-2.03;100.00;145764.53;4975199;28;21107;-68
2024/01/13 10:14:01;;;;;;;0.00;0.00;;;;;;;-1.90;100.00;145796.63;4976723;28;20242;-68
2024/01/13 10:16:30;;;;;;;0.00;0.00;;;;;;;-1.91;99.08;145792.88;4975055;28;20235;-68
2024/01/13 10:18:58;;;;;;;0.00;0.00;;;;;;;-2.13;100.00;145741.09;4960271;28;20232;-68
2024/01/13 10:21:26;;;;;;;0.00;0.00;;;;;;;-2.06;100.00;145757.13;4978482;28;20242;-68
2024/01/13 10:23:54;;;;;;;0.00;0.00;;;;;;;-1.91;100.00;145794.13;4970813;28;20276;-68
2024/01/13 10:26:21;;;;;;;0.00;0.00;;;;;;;-1.89;99.43;145797.81;4974782;28;20228;-68
2024/01/13 10:28:48;;;;;;;0.00;0.00;;;;;;;-1.94;100.00;145787.94;4972124;28;20760;-68
2024/01/13 10:31:16;;;;;;;0.00;0.00;;;;;;;-1.97;100.00;145779.34;4975123;28;20245;-68
2024/01/13 10:33:48;;;;;;;0.00;0.00;;;;;;;-2.04;99.27;145762.06;4970743;28;20213;-68
2024/01/13 10:36:15;;;;;;;0.00;0.00;;;;;;;-2.35;100.00;145689.25;4972289;28;20262;-68
2024/01/13 10:38:47;;;;;;;0.00;0.00;;;;;;;-2.34;100.00;145690.47;4972228;28;20221;-68
2024/01/13 10:41:14;;;;;;;0.00;0.00;;;;;;;-2.30;100.00;145701.59;4976006;28;20256;-68
2024/01/13 10:43:43;;;;;;;0.00;0.00;;;;;;;-2.27;100.00;145709.00;4975373;28;20864;-69
2024/01/13 10:46:12;;;;;;;0.00;0.00;;;;;;;-2.33;100.00;145692.94;4972868;28;20318;-68
2024/01/13 10:48:43;;;;;;;0.00;0.00;;;;;;;-2.17;100.00;145732.44;4974815;28;20220;-68
2024/01/13 10:51:20;;;;;;;0.00;0.00;;;;;;;-2.40;100.00;145676.91;4971555;28;20271;-68
2024/01/13 10:53:50;;;;;;;0.00;0.00;;;;;;;-2.26;100.00;145711.47;4973426;28;20844;-68
2024/01/13 10:56:17;;;;;;;0.00;0.00;;;;;;;-2.17;97.33;145732.44;4973919;28;20762;-68
2024/01/13 10:58:46;;;;;;;0.00;0.00;;;;;;;-2.35;99.90;145688.00;4970702;28;20556;-68
2024/01/13 11:01:14;;;;;;;0.00;0.00;;;;;;;-2.62;100.00;145625.09;4974148;28;20791;-68
2024/01/13 11:03:41;;;;;;;0.00;0.00;;;;;;;-2.31;100.00;145699.13;4972732;28;20550;-68
2024/01/13 11:06:08;;;;;;;0.00;0.00;;;;;;;-2.54;100.00;145644.84;4971767;28;20871;-67
2024/01/13 11:08:35;;;;;;;0.00;0.00;;;;;;;-2.55;100.00;145642.38;4969360;28;20224;-67
2024/01/13 11:11:06;;;;;;;0.00;0.00;;;;;;;-2.37;100.00;145684.31;4970753;28;20230;-67
2024/01/13 11:13:39;;;;;;;0.00;0.00;;;;;;;-2.41;99.07;145675.66;4979845;28;20226;-67
2024/01/13 11:16:09;;;;;;;0.00;0.00;;;;;;;-2.33;99.60;145694.19;4981370;28;20249;-67
2024/01/13 11:18:37;;;;;;;0.00;0.00;;;;;;;-2.25;100.00;145712.69;4976342;28;20234;-67